createdAt,value
2017-10-16T00:02:35.181Z,5.23
2017-10-16T00:17:37.019Z,6.40
2017-10-16T00:32:36.985Z,7.43
2017-10-16T00:47:35.440Z,6.77
2017-10-16T01:02:34.323Z,7.00
2017-10-16T01:17:36.267Z,8.77
2017-10-16T01:32:36.548Z,9.00
2017-10-16T01:47:35.246Z,6.90
2017-10-16T02:02:34.663Z,13.47
2017-10-16T02:17:36.665Z,14.37
2017-10-16T02:32:37.301Z,14.60
2017-10-16T02:47:37.988Z,14.70
2017-10-16T03:02:34.992Z,14.37
2017-10-16T03:17:41.164Z,14.03
2017-10-16T03:32:34.858Z,13.73
2017-10-16T03:47:36.294Z,13.57
2017-10-16T04:02:39.310Z,15.43
2017-10-16T04:17:38.331Z,14.73
2017-10-16T04:32:36.556Z,14.23
2017-10-16T04:47:34.494Z,15.07
2017-10-16T05:02:34.584Z,15.80
2017-10-16T05:17:34.461Z,17.20
2017-10-16T05:32:36.861Z,20.23
2017-10-16T05:47:34.765Z,20.07
2017-10-16T06:02:34.710Z,24.27
2017-10-16T06:17:34.712Z,20.20
2017-10-16T06:32:34.609Z,21.50
2017-10-16T06:47:35.102Z,19.93
2017-10-16T07:02:34.995Z,18.27
2017-10-16T07:17:34.943Z,18.10
2017-10-16T07:32:34.948Z,20.23
2017-10-16T07:47:35.356Z,22.13
2017-10-16T08:02:34.843Z,19.17
2017-10-16T08:17:34.850Z,19.87
2017-10-16T08:32:35.211Z,16.73
2017-10-16T08:47:34.707Z,16.77
2017-10-16T09:02:35.095Z,17.13
2017-10-16T09:17:34.538Z,17.60
2017-10-16T09:32:34.475Z,16.70
2017-10-16T09:47:34.987Z,18.00
2017-10-16T10:02:53.045Z,18.20
2017-10-16T10:17:34.829Z,17.50
2017-10-16T10:32:36.812Z,18.10
2017-10-16T10:47:35.178Z,21.30
2017-10-16T11:02:35.232Z,22.23
2017-10-16T11:17:35.169Z,18.83
2017-10-16T11:32:36.557Z,17.97
2017-10-16T11:47:37.569Z,20.97
2017-10-16T12:02:37.454Z,18.50
2017-10-16T12:17:34.421Z,19.63
2017-10-16T12:32:35.424Z,16.63
2017-10-16T12:47:35.296Z,15.50
2017-10-16T13:02:34.757Z,14.00
2017-10-16T13:17:34.776Z,11.70
2017-10-16T13:32:34.748Z,9.50
2017-10-16T13:47:35.934Z,7.73
2017-10-16T14:02:35.076Z,9.27
2017-10-16T14:17:34.991Z,9.23
2017-10-16T14:32:34.947Z,8.00
2017-10-16T14:47:35.399Z,7.90
2017-10-16T15:02:34.793Z,8.37
2017-10-16T15:17:35.266Z,10.07
2017-10-16T15:32:35.191Z,12.60
2017-10-16T15:47:34.748Z,11.83
2017-10-16T16:02:34.621Z,11.97
2017-10-16T16:17:36.583Z,11.73
2017-10-16T16:32:35.377Z,10.93
2017-10-16T16:47:35.897Z,12.87
2017-10-16T17:02:34.989Z,14.47
2017-10-16T17:17:36.060Z,15.30
2017-10-16T17:32:35.993Z,15.10
2017-10-16T17:47:36.242Z,14.37
2017-10-16T18:02:35.193Z,15.23
2017-10-16T18:17:35.400Z,12.23
2017-10-16T18:32:35.117Z,12.20
2017-10-16T18:47:38.468Z,10.60
2017-10-16T19:02:34.523Z,19.03
2017-10-16T19:17:36.504Z,17.97
2017-10-16T19:32:34.410Z,21.20
2017-10-16T19:47:34.811Z,15.17
2017-10-16T20:02:44.308Z,14.47
2017-10-16T20:17:35.750Z,13.03
2017-10-16T20:32:37.785Z,10.30
2017-10-16T20:47:35.746Z,10.93
2017-10-16T21:02:35.320Z,9.40
2017-10-16T21:17:37.455Z,10.53
2017-10-16T21:32:35.084Z,10.80
2017-10-16T21:47:36.435Z,11.57
2017-10-16T22:02:37.695Z,11.13
2017-10-16T22:17:33.932Z,11.13
2017-10-16T22:32:36.373Z,11.53
2017-10-16T22:47:36.727Z,12.17
2017-10-16T23:02:34.708Z,9.87
2017-10-16T23:17:34.667Z,10.13
2017-10-16T23:32:36.708Z,9.87
2017-10-16T23:47:36.989Z,10.33
